Time;durP1;ratioP1;P1;durP2;ratioP2;P2;SDS_P1;SDS_P2;PMS_P1;PMS_P2;Temp;Humidity;BMP_temperature;BMP_pressure;BME280_temperature;BME280_humidity;BME280_pressure;Samples;Min_cycle;Max_cycle;Signal;HPM_P1;HPM_P2
2022/08/04 00:01:44;;;;;;;5.10;3.47;;;;;;;22.97;51.33;100077.75;5067181;28;20032;-29
2022/08/04 00:04:23;;;;;;;4.80;3.42;;;;;;;22.90;51.46;100071.88;5049444;28;20036;-31
2022/08/04 00:07:18;;;;;;;5.88;3.55;;;;;;;22.83;52.69;100072.28;5049286;28;20587;-27
2022/08/04 00:10:04;;;;;;;4.50;3.30;;;;;;;22.49;53.34;100064.47;5066435;28;20041;-29
2022/08/04 00:12:32;;;;;;;9.52;3.58;;;;;;;22.92;52.97;100069.66;5049313;28;20028;-27
2022/08/04 00:14:59;;;;;;;;;;;;;;;22.61;54.20;100081.91;5049537;28;20044;-29
2022/08/04 00:17:30;;;;;;;6.05;3.70;;;;;;;22.68;53.36;100081.53;5049086;28;19975;-29
2022/08/04 00:19:59;;;;;;;5.47;3.50;;;;;;;22.51;53.81;100060.34;5048954;28;20450;-33
2022/08/04 00:22:30;;;;;;;7.88;3.70;;;;;;;22.58;53.71;100071.66;5049180;28;20028;-27
2022/08/04 00:24:57;;;;;;;8.32;3.95;;;;;;;22.78;53.36;100075.91;5049188;28;20025;-29
2022/08/04 00:27:22;;;;;;;7.55;3.72;;;;;;;22.57;53.29;100078.19;5049162;28;20025;-28
2022/08/04 00:29:48;;;;;;;6.65;3.40;;;;;;;22.60;52.31;100076.78;5066657;28;20035;-29
2022/08/04 00:32:17;;;;;;;6.53;3.80;;;;;;;22.75;52.06;100072.97;5048884;28;20418;-31
2022/08/04 00:34:43;;;;;;;5.28;3.55;;;;;;;22.49;53.62;100056.31;5048811;28;20041;-27
2022/08/04 00:37:09;;;;;;;6.05;3.70;;;;;;;22.34;53.26;100055.47;5048831;28;20031;-27
2022/08/04 00:39:35;;;;;;;5.30;3.67;;;;;;;22.36;53.03;100075.00;5048917;28;20029;-27
2022/08/04 00:42:39;;;;;;;6.43;3.60;;;;;;;22.40;54.49;100089.63;5048850;28;20035;-31
2022/08/04 00:45:15;;;;;;;5.05;3.67;;;;;;;22.39;55.29;100085.28;5066533;28;20028;-28
2022/08/04 00:47:54;;;;;;;5.85;3.78;;;;;;;22.23;54.21;100092.03;5067244;28;20025;-32
2022/08/04 00:50:42;;;;;;;6.85;3.80;;;;;;;21.95;54.12;100086.47;5048641;28;20036;-27
2022/08/04 00:53:16;;;;;;;8.75;3.90;;;;;;;22.84;54.08;100080.16;5048507;28;20035;-29
2022/08/04 00:56:20;;;;;;;5.38;3.95;;;;;;;22.49;53.50;100078.06;5049048;28;20043;-32
2022/08/04 00:59:13;;;;;;;6.88;3.55;;;;;;;22.39;54.29;100088.00;5048533;28;20127;-29
2022/08/04 01:01:50;;;;;;;6.50;4.00;;;;;;;22.16;54.71;100086.19;5048507;28;20028;-31
2022/08/04 01:04:28;;;;;;;6.03;3.65;;;;;;;22.01;54.71;100084.50;5048726;28;20097;-28
2022/08/04 01:07:09;;;;;;;8.60;4.18;;;;;;;22.04;54.67;100079.28;5033672;28;20050;-28
2022/08/04 01:09:34;;;;;;;8.45;3.90;;;;;;;21.99;54.79;100082.09;5048790;28;20020;-28
2022/08/04 01:12:18;;;;;;;8.25;3.83;;;;;;;22.16;54.80;100080.75;5066655;28;20035;-31
2022/08/04 01:15:14;;;;;;;6.85;3.88;;;;;;;21.84;56.22;100079.56;5066809;28;20157;-28
2022/08/04 01:17:59;;;;;;;7.57;4.30;;;;;;;21.59;57.25;100078.84;5066558;28;20032;-28
2022/08/04 01:20:26;;;;;;;7.65;3.85;;;;;;;21.51;57.02;100076.78;5048203;28;20119;-28
2022/08/04 01:22:57;;;;;;;7.23;3.63;;;;;;;21.85;57.26;100089.34;5048679;28;20032;-27
2022/08/04 01:25:35;;;;;;;7.63;4.05;;;;;;;22.52;55.37;100094.59;5066818;28;20028;-29
2022/08/04 01:28:22;;;;;;;8.70;3.80;;;;;;;22.46;54.86;100090.34;5048287;28;20077;-27
2022/08/04 01:30:51;;;;;;;7.15;3.75;;;;;;;22.64;54.88;100091.41;5049615;28;20054;-34
2022/08/04 01:33:20;;;;;;;9.80;4.57;;;;;;;22.66;53.75;100081.84;5052151;28;20098;-30
2022/08/04 01:35:49;;;;;;;5.68;3.55;;;;;;;22.24;54.75;100083.63;5052238;28;20052;-31
2022/08/04 01:38:28;;;;;;;7.20;3.70;;;;;;;21.71;56.31;100069.47;5052266;28;20050;-28
2022/08/04 01:40:59;;;;;;;6.50;3.90;;;;;;;21.65;57.26;100083.09;5070124;28;20116;-27
2022/08/04 01:43:27;;;;;;;5.60;4.07;;;;;;;21.76;56.58;100088.38;5070047;28;20047;-29
2022/08/04 01:45:58;;;;;;;6.80;4.18;;;;;;;21.71;56.20;100081.13;5052177;28;20032;-31
2022/08/04 01:48:26;;;;;;;10.43;4.50;;;;;;;21.52;57.45;100078.41;5070271;28;20025;-37
2022/08/04 01:50:53;;;;;;;8.50;4.00;;;;;;;21.38;58.84;100066.63;5051824;28;20506;-27
2022/08/04 01:53:20;;;;;;;6.45;4.38;;;;;;;21.32;58.65;100057.72;5051844;28;20116;-29
2022/08/04 01:55:51;;;;;;;6.68;4.00;;;;;;;21.09;60.21;100069.41;5051818;28;20039;-28
2022/08/04 01:58:18;;;;;;;6.15;4.20;;;;;;;20.79;62.16;100061.31;5051982;28;20059;-28
2022/08/04 02:00:56;;;;;;;8.65;3.90;;;;;;;20.96;61.93;100076.31;5051866;28;20067;-31
2022/08/04 02:03:21;;;;;;;;;;;;;;;20.54;62.53;100080.50;5052466;28;20025;-28
2022/08/04 02:05:53;;;;;;;7.45;4.20;;;;;;;20.35;63.52;100078.50;5069753;28;19911;-28
2022/08/04 02:08:50;;;;;;;7.47;4.00;;;;;;;20.29;62.95;100082.34;5051297;28;20124;-27
2022/08/04 02:11:20;;;;;;;6.03;4.22;;;;;;;20.05;63.93;100083.06;5051139;28;20627;-28
2022/08/04 02:14:39;;;;;;;8.38;4.28;;;;;;;20.16;63.10;100091.09;5051259;28;20039;-29
2022/08/04 02:17:04;;;;;;;5.32;3.85;;;;;;;19.97;62.80;100090.97;5060968;28;20108;-27
2022/08/04 02:19:34;;;;;;;7.30;4.03;;;;;;;19.94;62.46;100084.22;5051093;28;20028;-28
2022/08/04 02:22:07;;;;;;;5.47;3.60;;;;;;;19.97;61.71;100093.69;5051273;28;20029;-31
2022/08/04 02:24:44;;;;;;;6.25;4.00;;;;;;;19.80;61.86;100091.34;5051151;28;20507;-27
2022/08/04 02:27:12;;;;;;;5.93;3.97;;;;;;;19.77;61.93;100100.00;5050898;28;20029;-27
2022/08/04 02:29:50;;;;;;;6.20;4.00;;;;;;;19.71;62.34;100101.13;5068996;28;20127;-29
2022/08/04 02:32:24;;;;;;;5.05;3.90;;;;;;;19.38;63.52;100079.06;5051448;28;20047;-29
2022/08/04 02:35:13;;;;;;;6.55;3.90;;;;;;;19.44;64.35;100097.69;5051206;28;20028;-27
2022/08/04 02:37:46;;;;;;;5.97;4.50;;;;;;;19.41;65.16;100102.84;5051047;28;20143;-32
2022/08/04 02:40:11;;;;;;;6.93;5.05;;;;;;;19.30;65.63;100087.75;5051198;28;20028;-27
2022/08/04 02:42:37;;;;;;;5.57;4.30;;;;;;;19.64;64.69;100080.56;5050594;28;20050;-27
2022/08/04 02:45:05;;;;;;;6.72;4.78;;;;;;;20.01;63.69;100100.94;5050605;28;20116;-27
2022/08/04 02:47:32;;;;;;;7.50;4.30;;;;;;;19.66;64.63;100093.81;5069106;28;20040;-31
2022/08/04 02:50:00;;;;;;;7.70;4.50;;;;;;;19.69;64.84;100087.84;5068628;28;20031;-29
2022/08/04 02:52:25;;;;;;;11.27;4.63;;;;;;;19.33;66.24;100087.19;5050988;28;20035;-27
2022/08/04 02:54:54;;;;;;;8.63;5.20;;;;;;;19.55;64.36;100093.03;5050689;28;20040;-27
2022/08/04 02:57:23;;;;;;;9.93;5.13;;;;;;;19.52;64.54;100109.84;5050659;28;20102;-29
2022/08/04 03:00:21;;;;;;;10.32;5.80;;;;;;;19.60;64.28;100106.56;5068474;28;20981;-27
2022/08/04 03:03:28;;;;;;;12.15;5.93;;;;;;;19.26;65.66;100101.00;5007146;28;20072;-29
2022/08/04 03:06:12;;;;;;;7.78;4.82;;;;;;;19.20;65.72;100113.72;5068480;28;20622;-28
2022/08/04 03:08:49;;;;;;;7.32;4.43;;;;;;;19.22;65.34;100108.84;5068368;28;20108;-29
2022/08/04 03:11:49;;;;;;;6.43;4.03;;;;;;;19.48;64.78;100114.19;5068528;28;20428;-31
2022/08/04 03:14:21;;;;;;;10.20;5.60;;;;;;;19.71;64.56;100117.38;5050345;28;20051;-29
2022/08/04 03:17:05;;;;;;;7.82;4.95;;;;;;;19.65;64.34;100117.34;5050221;28;20500;-27
2022/08/04 03:20:01;;;;;;;8.27;5.30;;;;;;;19.79;63.69;100120.28;5068501;28;20033;-29
2022/08/04 03:22:42;;;;;;;8.52;4.80;;;;;;;19.61;64.75;100116.28;5050462;28;20059;-35
2022/08/04 03:25:31;;;;;;;7.47;5.15;;;;;;;19.35;65.69;100121.00;5068066;28;20059;-29
2022/08/04 03:28:21;;;;;;;9.40;4.95;;;;;;;19.75;63.84;100113.00;5068002;28;20040;-32
2022/08/04 03:31:14;;;;;;;7.35;5.10;;;;;;;19.90;64.00;100104.81;5068031;28;20049;-28
2022/08/04 03:34:02;;;;;;;7.40;5.00;;;;;;;19.97;63.08;100113.41;5049733;28;20021;-27
2022/08/04 03:36:53;;;;;;;9.23;5.10;;;;;;;19.97;63.15;100107.22;5050094;28;20101;-27
2022/08/04 03:39:57;;;;;;;7.85;5.50;;;;;;;19.43;66.13;100123.13;5049629;28;20479;-28
2022/08/04 03:42:55;;;;;;;9.50;4.57;;;;;;;19.07;65.11;100117.81;5049771;28;20118;-27
2022/08/04 03:45:36;;;;;;;6.93;4.53;;;;;;;18.80;65.34;100122.75;5049661;28;20024;-28
2022/08/04 03:48:07;;;;;;;8.70;4.28;;;;;;;18.72;65.91;100118.69;5049887;28;20427;-27
2022/08/04 03:50:32;;;;;;;6.05;4.10;;;;;;;18.76;65.62;100102.75;5067412;28;20442;-27
2022/08/04 03:53:41;;;;;;;7.10;4.80;;;;;;;19.48;64.26;100114.19;5066919;28;20039;-28
2022/08/04 03:56:18;;;;;;;7.30;4.88;;;;;;;19.84;63.51;100117.56;5067691;28;20024;-29
2022/08/04 03:59:14;;;;;;;11.13;5.30;;;;;;;19.90;62.66;100118.34;5067407;28;20021;-27
2022/08/04 04:01:39;;;;;;;9.57;4.88;;;;;;;20.15;62.02;100130.09;5049726;28;20456;-27
2022/08/04 04:04:28;;;;;;;6.93;4.50;;;;;;;19.65;64.55;100125.47;5067612;28;20536;-28
2022/08/04 04:07:12;;;;;;;9.20;5.15;;;;;;;19.67;65.56;100133.31;5049620;28;20110;-30
2022/08/04 04:09:56;;;;;;;12.43;5.75;;;;;;;19.91;65.20;100136.19;5067902;28;20084;-28
2022/08/04 04:12:47;;;;;;;8.38;5.00;;;;;;;20.23;64.68;100129.50;5067526;28;20032;-30
2022/08/04 04:15:37;;;;;;;10.25;6.15;;;;;;;20.43;64.33;100123.94;5067435;28;20607;-31
2022/08/04 04:18:35;;;;;;;10.20;5.93;;;;;;;20.58;64.05;100120.31;5049325;28;20032;-32
2022/08/04 04:21:34;;;;;;;8.55;5.88;;;;;;;20.69;62.98;100131.06;5066238;28;20123;-27
2022/08/04 04:24:32;;;;;;;9.40;5.60;;;;;;;20.83;62.29;100127.41;5067380;28;20456;-28
2022/08/04 04:27:17;;;;;;;6.90;5.40;;;;;;;20.74;62.30;100129.13;5067015;28;20028;-28
2022/08/04 04:30:01;;;;;;;7.78;6.35;;;;;;;20.95;61.60;100128.94;5048894;28;20465;-27
2022/08/04 04:32:48;;;;;;;8.70;5.70;;;;;;;21.20;61.27;100130.56;5067129;28;20032;-31
2022/08/04 04:35:18;;;;;;;8.77;5.35;;;;;;;20.94;60.85;100111.84;5048765;28;20028;-28
2022/08/04 04:37:49;;;;;;;9.35;5.10;;;;;;;20.92;61.76;100132.19;5067068;28;20530;-31
2022/08/04 04:40:17;;;;;;;7.63;5.60;;;;;;;20.80;63.05;100121.75;5067028;28;20040;-30
2022/08/04 04:43:10;;;;;;;8.80;5.65;;;;;;;21.00;62.77;100137.84;5048924;28;20036;-31
2022/08/04 04:45:57;;;;;;;10.27;5.32;;;;;;;20.99;63.34;100149.75;5067251;28;20503;-30
2022/08/04 04:48:35;;;;;;;9.35;5.47;;;;;;;21.12;62.55;100134.72;5067249;28;20111;-31
2022/08/04 04:51:18;;;;;;;7.43;4.75;;;;;;;21.26;62.23;100141.06;5067026;28;20060;-27
2022/08/04 04:53:46;;;;;;;8.63;5.00;;;;;;;21.45;61.77;100143.06;5048981;28;20024;-34
2022/08/04 04:56:30;;;;;;;;;;;;;;;21.64;60.84;100141.19;5067564;28;20035;-29
2022/08/04 04:58:57;;;;;;;6.75;4.68;;;;;;;21.65;60.28;100121.09;5066750;28;19908;-29
2022/08/04 05:01:38;;;;;;;11.52;5.05;;;;;;;21.82;59.75;100142.31;5048548;28;20029;-28
2022/08/04 05:04:15;;;;;;;6.47;4.78;;;;;;;21.81;59.62;100127.13;5049628;28;20040;-27
2022/08/04 05:07:08;;;;;;;8.40;4.30;;;;;;;22.03;59.70;100142.84;5052771;28;20036;-27
2022/08/04 05:10:04;;;;;;;6.55;4.68;;;;;;;22.23;59.74;100152.63;5070653;28;20483;-30
2022/08/04 05:12:42;;;;;;;7.00;4.88;;;;;;;22.27;59.17;100148.22;5070660;28;20480;-28
2022/08/04 05:15:09;;;;;;;;;;;;;;;22.43;58.67;100143.38;5052686;28;20060;-28
2022/08/04 05:17:40;;;;;;;6.85;4.93;;;;;;;22.70;57.44;100154.63;5070643;28;19946;-29
2022/08/04 05:20:14;;;;;;;13.35;5.78;;;;;;;22.65;56.70;100144.63;5052184;28;20034;-28
2022/08/04 05:22:41;;;;;;;13.07;5.40;;;;;;;22.79;57.48;100159.06;5052495;28;20472;-31
2022/08/04 05:25:18;;;;;;;10.52;5.72;;;;;;;22.87;57.22;100161.09;5052325;28;20132;-31
2022/08/04 05:27:53;;;;;;;7.15;5.65;;;;;;;23.01;56.56;100161.19;5052496;28;20032;-28
2022/08/04 05:30:19;;;;;;;8.55;6.38;;;;;;;22.96;57.08;100152.25;5070303;28;20045;-28
2022/08/04 05:33:03;;;;;;;9.30;6.90;;;;;;;23.03;56.73;100152.72;5052231;28;20031;-28
2022/08/04 05:35:33;;;;;;;8.52;6.03;;;;;;;23.06;56.66;100146.66;5052438;28;20051;-28
2022/08/04 05:38:02;;;;;;;8.98;5.97;;;;;;;23.30;55.52;100142.97;5052453;28;20024;-29
2022/08/04 05:40:28;;;;;;;7.93;6.13;;;;;;;23.33;55.97;100151.31;5052429;28;20113;-27
2022/08/04 05:42:56;;;;;;;8.38;5.68;;;;;;;23.37;55.27;100151.53;5052043;28;20029;-28
2022/08/04 05:45:22;;;;;;;9.80;6.35;;;;;;;23.50;56.11;100150.72;5052245;28;20060;-28
2022/08/04 05:47:50;;;;;;;9.55;6.68;;;;;;;23.63;55.03;100158.06;5052253;28;20122;-32
2022/08/04 05:50:16;;;;;;;8.05;6.38;;;;;;;23.72;55.71;100150.00;5051933;28;20101;-28
2022/08/04 05:52:42;;;;;;;12.85;6.88;;;;;;;23.77;54.58;100157.28;5052003;28;20020;-28
2022/08/04 05:55:11;;;;;;;10.35;6.93;;;;;;;23.89;55.02;100154.84;5051495;28;20028;-27
2022/08/04 05:57:39;;;;;;;11.88;6.13;;;;;;;23.90;54.96;100153.72;5069665;28;20028;-29
2022/08/04 06:00:06;;;;;;;10.10;6.63;;;;;;;23.80;54.44;100143.88;5069840;28;20050;-34
2022/08/04 06:02:34;;;;;;;7.32;6.18;;;;;;;24.05;53.63;100145.22;5069737;28;20480;-29
2022/08/04 06:05:00;;;;;;;;;;;;;;;24.24;53.39;100146.97;5051834;28;20098;-31
2022/08/04 06:07:26;;;;;;;9.98;6.25;;;;;;;24.17;53.37;100130.22;5051506;28;19912;-29
2022/08/04 06:09:52;;;;;;;11.25;5.80;;;;;;;24.30;53.27;100139.50;5069716;28;20111;-28
2022/08/04 06:12:24;;;;;;;7.35;6.10;;;;;;;24.45;52.47;100131.72;5051228;28;20024;-28
2022/08/04 06:14:52;;;;;;;8.68;6.20;;;;;;;24.65;51.77;100144.09;5051796;28;20028;-28
2022/08/04 06:17:31;;;;;;;11.13;5.80;;;;;;;24.90;52.46;100146.47;5050732;28;20054;-28
2022/08/04 06:19:58;;;;;;;13.73;6.43;;;;;;;25.01;50.82;100151.34;5069779;28;20028;-28
2022/08/04 06:22:26;;;;;;;10.93;5.95;;;;;;;25.02;52.40;100143.97;5069353;28;20845;-29
2022/08/04 06:24:54;;;;;;;7.15;5.50;;;;;;;25.12;51.39;100131.97;5051640;28;20029;-28
2022/08/04 06:27:21;;;;;;;10.48;6.55;;;;;;;25.34;51.46;100139.31;5051414;28;20127;-29
2022/08/04 06:29:49;;;;;;;7.83;6.10;;;;;;;25.46;50.22;100125.88;5069281;28;20103;-28
2022/08/04 06:34:48;;;;;;;6.83;6.10;;;;;;;25.17;51.17;100143.56;4852712;27;8389816;-38
2022/08/04 06:37:16;;;;;;;12.68;9.35;;;;;;;25.28;50.67;100127.72;5104808;28;20042;-29
2022/08/04 06:39:41;;;;;;;10.38;6.57;;;;;;;25.61;50.10;100138.25;5104754;28;20032;-30
2022/08/04 06:42:07;;;;;;;8.63;5.57;;;;;;;25.78;49.32;100132.00;5104752;28;20410;-29
2022/08/04 06:44:34;;;;;;;9.45;6.55;;;;;;;26.00;48.46;100140.09;5104440;28;20031;-28
2022/08/04 06:47:01;;;;;;;26.85;21.13;;;;;;;26.03;49.10;100144.94;5103251;28;20028;-29
2022/08/04 06:49:28;;;;;;;8.82;6.07;;;;;;;25.88;48.68;100126.25;5102838;28;20031;-30
2022/08/04 06:51:55;;;;;;;10.35;6.90;;;;;;;26.03;48.31;100117.63;5103168;28;20035;-30
2022/08/04 06:54:21;;;;;;;8.38;6.30;;;;;;;26.13;48.88;100141.06;5102829;28;20054;-29
2022/08/04 06:56:48;;;;;;;9.93;6.32;;;;;;;26.06;49.21;100132.56;5104585;28;20024;-31
2022/08/04 06:59:16;;;;;;;8.60;7.18;;;;;;;26.26;48.54;100147.50;5102920;28;20744;-30
2022/08/04 07:01:42;;;;;;;16.10;10.05;;;;;;;26.25;47.30;100143.97;5102987;28;20027;-29
2022/08/04 07:04:09;;;;;;;9.05;6.80;;;;;;;26.20;48.61;100129.66;5102676;28;20506;-29
2022/08/04 07:06:35;;;;;;;9.35;6.60;;;;;;;26.51;49.48;100131.41;5102388;28;20136;-29
2022/08/04 07:12:08;;;;;;;8.17;6.23;;;;;;;26.69;47.18;100126.75;4851921;27;8404830;-31
2022/08/04 07:14:35;;;;;;;9.10;6.68;;;;;;;26.77;47.69;100126.72;5104331;28;20434;-35
2022/08/04 07:17:05;;;;;;;10.83;7.47;;;;;;;26.96;46.58;100125.53;5102934;28;20028;-29
2022/08/04 07:19:35;;;;;;;9.10;6.70;;;;;;;27.00;47.46;100110.06;5104602;28;20035;-29
2022/08/04 07:22:02;;;;;;;27.08;17.67;;;;;;;27.18;47.31;100128.00;5102833;28;20034;-31
2022/08/04 07:24:32;;;;;;;35.07;25.23;;;;;;;27.44;46.43;100118.88;5103090;28;20035;-30
2022/08/04 07:26:59;;;;;;;13.07;8.35;;;;;;;27.37;46.67;100133.09;5102802;28;20131;-34
2022/08/04 07:29:25;;;;;;;8.85;6.22;;;;;;;27.26;46.26;100120.91;5102487;28;20502;-29
2022/08/04 07:31:52;;;;;;;11.95;6.57;;;;;;;27.60;45.78;100119.94;5102549;28;20477;-29
2022/08/04 07:34:19;;;;;;;10.10;6.63;;;;;;;27.75;46.09;100128.69;5102771;28;20028;-34
2022/08/04 07:36:44;;;;;;;10.20;6.93;;;;;;;27.81;45.06;100110.91;5102670;28;20028;-31
2022/08/04 07:39:10;;;;;;;8.60;6.53;;;;;;;28.17;45.01;100123.22;5104070;28;20028;-30
2022/08/04 07:41:36;;;;;;;10.00;7.20;;;;;;;28.24;44.80;100118.00;5104023;28;20082;-30
2022/08/04 07:44:03;;;;;;;9.30;5.80;;;;;;;27.95;44.98;100113.41;5103645;28;20030;-29
2022/08/04 07:46:29;;;;;;;9.30;6.13;;;;;;;27.89;44.22;100101.84;5102545;28;20050;-32
2022/08/04 07:48:55;;;;;;;10.02;5.68;;;;;;;28.08;44.37;100092.34;5103953;28;20407;-29
2022/08/04 07:51:22;;;;;;;7.53;5.10;;;;;;;28.48;42.04;100121.97;5103879;28;20453;-31
2022/08/04 07:53:47;;;;;;;8.18;5.20;;;;;;;28.42;42.90;100118.63;5102002;28;20051;-29
2022/08/04 07:56:15;;;;;;;7.18;4.82;;;;;;;28.61;42.28;100121.69;5102082;28;20483;-31
2022/08/04 07:58:41;;;;;;;9.80;5.10;;;;;;;28.87;41.89;100095.88;5101895;28;20035;-32
2022/08/04 08:01:09;;;;;;;10.43;5.30;;;;;;;28.86;41.65;100099.78;5103520;28;20024;-29
2022/08/04 08:03:36;;;;;;;8.00;5.05;;;;;;;28.94;42.62;100101.63;5102169;28;20077;-30
2022/08/04 08:06:03;;;;;;;6.15;4.60;;;;;;;29.17;38.77;100106.69;5103531;28;20486;-29
2022/08/04 08:08:28;;;;;;;6.05;3.80;;;;;;;29.01;37.77;100112.03;5101996;28;20585;-29
2022/08/04 08:10:54;;;;;;;4.28;3.60;;;;;;;29.12;38.77;100091.25;5090491;28;20036;-29
2022/08/04 08:13:20;;;;;;;5.80;4.22;;;;;;;29.44;37.16;100105.19;5097031;28;20051;-28
2022/08/04 08:15:46;;;;;;;4.85;3.47;;;;;;;29.55;36.53;100105.53;5084936;28;20395;-29
2022/08/04 08:18:12;;;;;;;7.50;3.47;;;;;;;29.37;37.44;100102.22;5084903;28;20031;-30
2022/08/04 08:20:38;;;;;;;6.75;4.00;;;;;;;29.24;38.28;100099.50;5084964;28;20044;-29
2022/08/04 08:23:04;;;;;;;6.10;3.97;;;;;;;29.54;37.37;100095.66;5089781;28;20032;-33
2022/08/04 08:25:32;;;;;;;5.97;3.50;;;;;;;29.91;37.19;100110.16;5071164;28;20031;-29
2022/08/04 08:28:01;;;;;;;6.07;3.67;;;;;;;30.13;36.08;100097.81;5071317;28;20131;-31
2022/08/04 08:30:26;;;;;;;5.55;3.40;;;;;;;29.90;35.12;100092.06;5071359;28;20027;-29
2022/08/04 08:32:52;;;;;;;6.43;3.60;;;;;;;30.17;36.02;100073.16;5089518;28;20036;-30
2022/08/04 08:35:19;;;;;;;6.43;3.20;;;;;;;30.46;34.46;100095.97;5089403;28;20028;-30
2022/08/04 08:37:53;;;;;;;5.30;3.35;;;;;;;30.53;33.23;100091.47;5070724;28;20028;-31
2022/08/04 08:40:42;;;;;;;5.03;3.22;;;;;;;30.66;34.14;100105.16;5070695;28;20028;-33
2022/08/04 08:43:41;;;;;;;5.70;3.65;;;;;;;30.84;32.51;100100.91;5075350;28;20046;-35
2022/08/04 08:46:09;;;;;;;5.55;2.92;;;;;;;31.09;32.62;100107.03;5089041;28;20023;-31
2022/08/04 08:49:07;;;;;;;5.05;3.50;;;;;;;31.03;31.01;100097.44;5070561;28;20112;-31
2022/08/04 08:51:49;;;;;;;4.35;2.80;;;;;;;31.21;31.27;100095.13;5083901;28;20040;-31
2022/08/04 08:54:36;;;;;;;5.13;2.88;;;;;;;31.43;31.93;100093.66;5089068;28;20032;-29
2022/08/04 08:57:20;;;;;;;5.82;2.70;;;;;;;31.62;31.01;100093.72;5070414;28;20445;-30
2022/08/04 09:00:21;;;;;;;5.97;2.90;;;;;;;31.38;31.74;100074.63;5089187;28;20035;-29
2022/08/04 09:02:47;;;;;;;3.58;2.28;;;;;;;31.51;30.47;100086.38;5088604;28;20028;-30
2022/08/04 09:05:40;;;;;;;5.03;2.40;;;;;;;31.78;29.55;100090.13;5088655;28;20035;-30
2022/08/04 09:08:21;;;;;;;3.88;2.70;;;;;;;32.00;29.34;100072.06;5070388;28;20038;-32
2022/08/04 09:10:50;;;;;;;6.25;3.00;;;;;;;31.89;29.70;100077.31;5088499;28;20031;-29
2022/08/04 09:13:29;;;;;;;5.10;2.75;;;;;;;32.11;28.96;100061.25;5088912;28;20110;-29
2022/08/04 09:16:05;;;;;;;5.55;2.88;;;;;;;32.24;29.92;100068.19;5070179;28;20036;-30
2022/08/04 09:18:43;;;;;;;4.63;2.50;;;;;;;32.66;28.95;100070.16;5070496;28;20028;-30
2022/08/04 09:21:09;;;;;;;4.93;2.30;;;;;;;32.58;29.05;100063.69;5070059;28;20027;-29
2022/08/04 09:23:40;;;;;;;5.25;2.33;;;;;;;32.49;27.37;100067.84;5088827;28;20418;-35
2022/08/04 09:26:47;;;;;;;5.18;2.60;;;;;;;32.58;26.60;100057.41;5088889;28;20509;-31
2022/08/04 09:29:33;;;;;;;3.65;2.22;;;;;;;32.86;26.04;100070.09;5088909;28;20024;-29
2022/08/04 09:32:07;;;;;;;7.18;2.88;;;;;;;32.87;27.46;100063.38;5088645;28;20081;-29
2022/08/04 09:35:00;;;;;;;5.53;2.92;;;;;;;32.20;28.61;100059.03;5069089;28;20436;-31
2022/08/04 09:38:00;;;;;;;5.50;2.67;;;;;;;32.15;29.46;100062.13;5070113;28;20032;-29
2022/08/04 09:40:33;;;;;;;5.15;2.55;;;;;;;31.96;28.28;100049.91;5053257;28;20054;-31
2022/08/04 09:43:22;;;;;;;3.40;2.55;;;;;;;32.11;28.15;100039.97;5088213;28;20407;-30
2022/08/04 09:46:19;;;;;;;4.70;2.67;;;;;;;32.35;28.48;100051.84;5040165;28;20121;-30
2022/08/04 09:49:14;;;;;;;4.50;3.20;;;;;;;32.73;28.67;100041.84;5087738;28;20501;-34
2022/08/04 09:51:55;;;;;;;4.78;2.97;;;;;;;32.97;27.59;100046.19;5073181;28;20035;-40
2022/08/04 09:54:38;;;;;;;3.95;2.83;;;;;;;33.09;27.83;100047.97;5088037;28;20414;-33
2022/08/04 09:57:25;;;;;;;6.40;3.20;;;;;;;33.47;28.31;100046.13;5087803;28;20043;-30
2022/08/04 10:00:20;;;;;;;3.50;2.70;;;;;;;33.37;28.98;100042.06;5069445;28;20050;-34
2022/08/04 10:02:52;;;;;;;6.00;2.80;;;;;;;33.67;28.93;100032.97;5065910;28;20047;-30
2022/08/04 10:05:25;;;;;;;3.88;2.50;;;;;;;33.73;27.20;100032.25;5087488;28;20093;-29
2022/08/04 10:08:02;;;;;;;4.35;2.97;;;;;;;34.09;27.67;100029.91;5087092;28;20040;-32
2022/08/04 10:10:49;;;;;;;4.43;2.72;;;;;;;34.50;25.71;100037.44;5069075;28;20039;-33
2022/08/04 10:13:34;;;;;;;4.38;3.00;;;;;;;34.34;26.28;100038.47;5069137;28;20095;-32
2022/08/04 10:16:18;;;;;;;4.88;2.88;;;;;;;34.50;26.39;100029.13;5087176;28;20028;-30
2022/08/04 10:19:01;;;;;;;3.80;2.70;;;;;;;34.67;25.01;100030.47;5087502;28;20479;-29
2022/08/04 10:21:39;;;;;;;4.05;2.75;;;;;;;34.99;26.19;100039.03;5087368;28;20418;-33
2022/08/04 10:24:07;;;;;;;3.97;2.78;;;;;;;34.61;25.47;100030.00;5069003;28;20032;-31
2022/08/04 10:26:47;;;;;;;5.65;2.70;;;;;;;34.76;24.67;100026.19;5069127;28;20043;-42
2022/08/04 10:29:45;;;;;;;3.75;2.67;;;;;;;35.03;25.49;100023.22;5069231;28;20060;-32
2022/08/04 10:32:11;;;;;;;8.35;3.00;;;;;;;34.99;25.54;100028.72;5068851;28;20851;-29
2022/08/04 10:35:22;;;;;;;3.90;2.97;;;;;;;35.22;24.32;100020.16;5087137;28;20028;-31
2022/08/04 10:38:09;;;;;;;4.45;2.83;;;;;;;35.15;24.86;100025.69;4984478;28;20042;-33
2022/08/04 10:40:49;;;;;;;4.35;2.92;;;;;;;35.19;24.93;100011.84;4984911;28;20049;-30
2022/08/04 10:43:36;;;;;;;5.07;3.42;;;;;;;34.89;24.92;100010.06;5044004;28;20130;-31
2022/08/04 10:46:25;;;;;;;6.00;2.97;;;;;;;35.16;24.42;100013.41;5052657;28;20032;-30
2022/08/04 10:48:58;;;;;;;6.47;2.78;;;;;;;34.65;25.10;99997.63;5087096;28;20047;-29
2022/08/04 10:52:19;;;;;;;4.47;2.60;;;;;;;34.49;26.44;99997.06;5068568;28;20043;-31
2022/08/04 10:55:26;;;;;;;3.97;2.58;;;;;;;34.95;25.43;99993.88;5060674;28;20032;-34
2022/08/04 10:58:04;;;;;;;4.07;2.80;;;;;;;34.51;25.45;99991.94;5086913;28;20051;-33
2022/08/04 11:00:32;;;;;;;4.13;3.08;;;;;;;34.57;25.43;99994.00;5068728;28;20036;-30
2022/08/04 11:03:22;;;;;;;3.65;2.75;;;;;;;34.53;26.48;99990.41;5068528;28;20055;-32
2022/08/04 11:05:54;;;;;;;3.85;2.53;;;;;;;34.89;26.36;99985.13;5068219;28;20032;-33
2022/08/04 11:08:28;;;;;;;4.28;2.67;;;;;;;35.63;24.56;99996.97;5068533;28;20039;-30
2022/08/04 11:11:02;;;;;;;5.32;2.50;;;;;;;35.70;23.81;99997.03;5086675;28;20043;-29
2022/08/04 11:13:34;;;;;;;3.95;2.70;;;;;;;35.64;24.96;99989.47;5086631;28;20067;-32
2022/08/04 11:16:04;;;;;;;3.95;2.67;;;;;;;35.33;25.48;99980.63;5068146;28;20024;-29
2022/08/04 11:18:35;;;;;;;6.43;2.90;;;;;;;35.03;25.45;99978.88;5068148;28;20036;-31
2022/08/04 11:21:12;;;;;;;3.60;2.85;;;;;;;34.89;24.18;99974.03;5086489;28;20028;-30
2022/08/04 11:23:45;;;;;;;3.65;2.45;;;;;;;35.27;24.90;99971.09;5068581;28;20085;-33
2022/08/04 11:26:35;;;;;;;3.70;2.70;;;;;;;35.70;25.07;99976.84;5068454;28;20060;-31
2022/08/04 11:29:19;;;;;;;5.65;2.80;;;;;;;35.90;24.10;99961.44;5086156;28;20085;-31
2022/08/04 11:31:48;;;;;;;4.28;2.63;;;;;;;35.91;24.15;99960.22;5067942;28;20020;-29
2022/08/04 11:34:21;;;;;;;3.65;2.47;;;;;;;36.26;22.37;99963.47;5068069;28;20207;-31
2022/08/04 11:37:04;;;;;;;5.30;2.70;;;;;;;36.12;23.03;99959.44;5086447;28;20076;-30
2022/08/04 11:39:49;;;;;;;3.90;2.85;;;;;;;35.81;23.31;99961.78;5067918;28;20097;-30
2022/08/04 11:42:25;;;;;;;4.47;2.90;;;;;;;34.84;24.70;99948.66;5085528;28;20491;-32
2022/08/04 11:44:59;;;;;;;3.42;2.80;;;;;;;34.61;24.24;99961.56;5086509;28;20479;-29
2022/08/04 11:47:31;;;;;;;4.00;2.70;;;;;;;35.33;24.86;99959.25;5068240;28;20052;-32
2022/08/04 11:50:19;;;;;;;3.75;3.05;;;;;;;35.06;25.36;99955.91;5067750;28;20086;-29
2022/08/04 11:52:45;;;;;;;5.53;2.60;;;;;;;34.78;23.92;99935.19;5086747;28;20024;-33
2022/08/04 11:55:15;;;;;;;4.72;2.90;;;;;;;34.49;24.60;99923.13;5051457;28;20031;-34
2022/08/04 11:57:40;;;;;;;4.43;2.90;;;;;;;34.29;24.50;99919.81;5069937;28;20035;-32
2022/08/04 12:00:11;;;;;;;6.13;3.50;;;;;;;34.38;26.20;99930.53;5089862;28;20024;-29
2022/08/04 12:02:55;;;;;;;6.45;3.05;;;;;;;34.43;24.48;99921.91;5090113;28;20031;-31
2022/08/04 12:05:27;;;;;;;3.40;2.65;;;;;;;35.30;24.39;99914.88;5071383;28;20047;-30
2022/08/04 12:08:14;;;;;;;3.80;2.83;;;;;;;35.70;23.29;99913.84;5071473;28;20106;-29
2022/08/04 12:10:50;;;;;;;4.75;2.60;;;;;;;36.77;22.34;99915.81;5071287;28;20040;-31
2022/08/04 12:13:26;;;;;;;4.63;2.67;;;;;;;37.64;22.15;99912.69;5067845;28;20139;-32
2022/08/04 12:16:01;;;;;;;;;;;;;;;37.47;22.74;99920.69;5068573;28;20460;-31